createdAt,value
2022-10-19T00:01:20.190Z,7.35
2022-10-19T00:03:23.289Z,3.22
2022-10-19T00:05:25.548Z,6.65
2022-10-19T00:07:27.740Z,6.40
2022-10-19T00:09:29.960Z,4.05
2022-10-19T00:11:33.668Z,3.53
2022-10-19T00:13:36.057Z,3.15
2022-10-19T00:17:43.385Z,4.72
2022-10-19T00:19:47.950Z,3.65
2022-10-19T00:23:53.036Z,4.70
2022-10-19T00:27:58.231Z,3.08
2022-10-19T00:30:00.529Z,5.10
2022-10-19T00:32:03.187Z,3.00
2022-10-19T00:34:05.874Z,3.63
2022-10-19T00:36:16.122Z,4.03
2022-10-19T00:38:20.425Z,4.47
2022-10-19T00:40:22.693Z,2.78
2022-10-19T00:44:30.774Z,5.10
2022-10-19T00:46:38.352Z,4.68
2022-10-19T00:48:40.499Z,5.60
2022-10-19T00:50:44.382Z,6.60
2022-10-19T00:52:46.751Z,2.58
2022-10-19T00:54:50.810Z,3.35
2022-10-19T00:56:56.731Z,3.25
2022-10-19T00:58:59.340Z,5.32
2022-10-19T01:01:04.589Z,5.57
2022-10-19T01:03:08.728Z,4.45
2022-10-19T01:05:12.017Z,2.90
2022-10-19T01:07:14.852Z,4.82
2022-10-19T01:09:18.039Z,2.78
2022-10-19T01:13:56.076Z,2.95
2022-10-19T01:16:24.362Z,3.65
2022-10-19T01:18:40.899Z,6.40
2022-10-19T01:20:59.263Z,5.38
2022-10-19T01:23:44.774Z,4.40
2022-10-19T01:26:26.705Z,5.47
2022-10-19T01:29:06.050Z,4.22
2022-10-19T01:31:27.076Z,5.70
2022-10-19T01:36:11.702Z,5.68
2022-10-19T01:38:30.614Z,5.07
2022-10-19T01:40:50.971Z,3.22
2022-10-19T01:42:58.864Z,10.65
2022-10-19T01:45:09.628Z,4.57
2022-10-19T01:47:19.571Z,8.95
2022-10-19T01:49:45.738Z,5.22
2022-10-19T01:51:54.244Z,5.53
2022-10-19T01:54:01.245Z,7.80
2022-10-19T01:56:05.578Z,4.22
2022-10-19T01:58:11.198Z,3.45
2022-10-19T02:00:16.120Z,8.43
2022-10-19T02:02:22.232Z,6.07
2022-10-19T02:04:26.139Z,4.18
2022-10-19T02:06:28.475Z,3.03
2022-10-19T02:08:44.429Z,5.50
2022-10-19T02:10:47.918Z,5.25
2022-10-19T02:12:51.407Z,10.95
2022-10-19T02:14:58.997Z,5.97
2022-10-19T02:17:08.985Z,5.47
2022-10-19T02:19:15.064Z,6.05
2022-10-19T02:21:18.276Z,4.43
2022-10-19T02:23:25.139Z,5.38
2022-10-19T02:25:34.216Z,4.93
2022-10-19T02:27:42.226Z,5.72
2022-10-19T02:29:44.411Z,6.80
2022-10-19T02:31:46.860Z,7.05
2022-10-19T02:35:51.168Z,4.20
2022-10-19T02:37:53.590Z,5.05
2022-10-19T02:42:07.148Z,8.23
2022-10-19T02:44:23.010Z,3.67
2022-10-19T02:46:42.897Z,5.60
2022-10-19T02:48:46.212Z,4.07
2022-10-19T02:50:48.360Z,4.75
2022-10-19T02:52:50.608Z,6.88
2022-10-19T02:54:52.688Z,7.90
2022-10-19T02:56:55.171Z,7.28
2022-10-19T02:58:57.337Z,6.13
2022-10-19T03:00:59.459Z,7.03
2022-10-19T03:03:03.040Z,5.70
2022-10-19T03:05:05.399Z,7.30
2022-10-19T03:09:12.822Z,6.75
2022-10-19T03:11:15.053Z,8.18
2022-10-19T03:13:17.119Z,5.53
2022-10-19T03:15:19.476Z,6.90
2022-10-19T03:17:21.529Z,5.50
2022-10-19T03:19:23.873Z,9.27
2022-10-19T03:21:26.009Z,9.77
2022-10-19T03:23:28.067Z,6.53
2022-10-19T03:25:30.221Z,6.30
2022-10-19T03:27:32.619Z,6.10
2022-10-19T03:29:34.858Z,6.93
2022-10-19T03:31:37.068Z,7.55
2022-10-19T03:33:39.273Z,5.72
2022-10-19T03:37:43.543Z,5.63
2022-10-19T03:39:45.831Z,6.57
2022-10-19T03:43:50.458Z,8.23
2022-10-19T03:45:52.535Z,9.23
2022-10-19T03:47:54.649Z,8.70
2022-10-19T03:49:56.775Z,6.60
2022-10-19T03:51:58.929Z,11.25
2022-10-19T03:54:04.034Z,9.88
2022-10-19T03:56:06.508Z,15.05
2022-10-19T04:00:11.206Z,10.85
2022-10-19T04:02:16.060Z,13.77
2022-10-19T04:04:20.008Z,9.65
2022-10-19T04:06:27.068Z,11.88
2022-10-19T04:08:29.302Z,12.90
2022-10-19T04:12:33.654Z,5.80
2022-10-19T04:16:57.550Z,12.68
2022-10-19T04:19:00.084Z,10.13
2022-10-19T04:21:05.536Z,12.02
2022-10-19T04:23:07.604Z,17.30
2022-10-19T04:25:12.485Z,11.48
2022-10-19T04:27:14.570Z,11.63
2022-10-19T04:29:19.185Z,12.90
2022-10-19T04:31:21.244Z,8.85
2022-10-19T04:33:23.578Z,17.63
2022-10-19T04:37:27.581Z,12.45
2022-10-19T04:39:29.743Z,9.25
2022-10-19T04:41:33.205Z,15.55
2022-10-19T04:43:35.614Z,8.25
2022-10-19T04:47:39.588Z,10.10
2022-10-19T04:49:44.595Z,9.88
2022-10-19T04:51:46.732Z,10.18
2022-10-19T04:53:49.313Z,7.82
2022-10-19T04:55:51.467Z,9.73
2022-10-19T04:57:53.587Z,16.35
2022-10-19T04:59:55.638Z,9.48
2022-10-19T05:01:57.721Z,13.52
2022-10-19T05:04:03.048Z,11.90
2022-10-19T05:06:05.675Z,7.70
2022-10-19T05:08:08.031Z,10.48
2022-10-19T05:10:11.174Z,12.00
2022-10-19T05:12:14.483Z,8.70
2022-10-19T05:14:16.615Z,12.80
2022-10-19T05:16:20.691Z,9.95
2022-10-19T05:18:22.811Z,9.32
2022-10-19T05:20:25.432Z,11.77
2022-10-19T05:22:27.687Z,10.75
2022-10-19T05:24:32.745Z,11.23
2022-10-19T05:26:35.327Z,12.07
2022-10-19T05:28:37.961Z,8.05
2022-10-19T05:30:40.032Z,11.48
2022-10-19T05:32:42.322Z,9.35
2022-10-19T05:34:44.341Z,9.77
2022-10-19T05:36:46.505Z,10.07
2022-10-19T05:38:50.506Z,13.82
2022-10-19T05:40:53.733Z,6.78
2022-10-19T05:42:55.888Z,10.50
2022-10-19T05:44:58.010Z,15.18
2022-10-19T05:47:00.694Z,7.28
2022-10-19T05:49:03.050Z,11.18
2022-10-19T05:51:07.256Z,8.27
2022-10-19T05:53:09.499Z,14.05
2022-10-19T05:55:11.681Z,8.82
2022-10-19T05:57:14.607Z,16.10
2022-10-19T05:59:19.776Z,12.25
2022-10-19T06:01:22.004Z,10.95
2022-10-19T06:03:25.457Z,14.45
2022-10-19T06:05:27.539Z,13.55
2022-10-19T06:07:29.988Z,16.42
2022-10-19T06:09:36.123Z,17.13
2022-10-19T06:11:40.591Z,17.50
2022-10-19T06:13:44.105Z,15.93
2022-10-19T06:15:50.979Z,16.75
2022-10-19T06:17:53.274Z,18.45
2022-10-19T06:19:55.417Z,18.95
2022-10-19T06:21:57.558Z,19.50
2022-10-19T06:24:03.707Z,19.70
2022-10-19T06:26:09.762Z,21.95
2022-10-19T06:28:11.902Z,23.95
2022-10-19T06:30:14.193Z,20.95
2022-10-19T06:34:18.789Z,33.50
2022-10-19T06:38:24.027Z,27.45
2022-10-19T06:40:26.334Z,31.60
2022-10-19T06:44:31.714Z,27.38
2022-10-19T06:46:34.066Z,31.23
2022-10-19T06:48:36.456Z,26.45
2022-10-19T06:50:38.689Z,23.67
2022-10-19T06:54:44.154Z,16.75
2022-10-19T06:56:46.617Z,19.65
2022-10-19T06:58:50.136Z,19.50
2022-10-19T07:00:57.673Z,17.98
2022-10-19T07:03:00.632Z,18.48
2022-10-19T07:05:06.027Z,18.80
2022-10-19T07:07:09.374Z,23.67
2022-10-19T07:11:19.035Z,21.00
2022-10-19T07:13:21.948Z,22.85
2022-10-19T07:15:24.075Z,20.33
2022-10-19T07:17:26.288Z,18.67
2022-10-19T07:19:28.519Z,18.88
2022-10-19T07:21:30.851Z,18.60
2022-10-19T07:25:37.237Z,19.60
2022-10-19T07:27:40.542Z,17.38
2022-10-19T07:29:43.143Z,21.17
2022-10-19T07:33:52.154Z,17.40
2022-10-19T07:35:59.837Z,14.68
2022-10-19T07:38:02.495Z,18.27
2022-10-19T07:40:05.001Z,20.50
2022-10-19T07:42:07.120Z,18.80
2022-10-19T07:44:10.967Z,20.65
2022-10-19T07:46:18.758Z,17.95
2022-10-19T07:48:20.772Z,23.35
2022-10-19T07:50:27.471Z,25.20
2022-10-19T07:52:31.834Z,20.83
2022-10-19T07:54:36.611Z,21.13
2022-10-19T07:56:38.825Z,27.73
2022-10-19T07:58:41.931Z,23.13
2022-10-19T08:00:44.200Z,16.58
2022-10-19T08:03:00.197Z,17.38
2022-10-19T08:05:11.579Z,18.23
2022-10-19T08:07:14.205Z,20.13
2022-10-19T08:09:39.989Z,17.00
2022-10-19T08:11:39.461Z,17.42
2022-10-19T08:13:42.704Z,15.95
2022-10-19T08:15:44.959Z,13.45
2022-10-19T08:19:49.299Z,17.02
2022-10-19T08:21:52.657Z,13.18
2022-10-19T08:23:55.126Z,11.13
2022-10-19T08:26:00.338Z,12.95
2022-10-19T08:28:13.948Z,9.90
2022-10-19T08:30:20.857Z,9.43
2022-10-19T08:32:23.231Z,8.90
2022-10-19T08:34:27.045Z,9.90
2022-10-19T08:36:31.548Z,10.38
2022-10-19T08:38:35.869Z,12.40
2022-10-19T08:40:38.023Z,12.45
2022-10-19T08:42:57.288Z,11.43
2022-10-19T08:45:06.686Z,9.55
2022-10-19T08:47:23.543Z,10.27
2022-10-19T08:49:32.135Z,9.50
2022-10-19T08:51:38.983Z,9.55
2022-10-19T08:53:41.648Z,11.93
2022-10-19T08:56:22.114Z,12.07
2022-10-19T08:59:06.784Z,14.68
2022-10-19T09:01:35.393Z,16.77
2022-10-19T09:03:56.076Z,11.68
2022-10-19T09:06:32.127Z,12.20
2022-10-19T09:11:06.213Z,13.38
2022-10-19T09:14:05.054Z,14.23
2022-10-19T09:16:21.818Z,18.10
2022-10-19T09:18:30.333Z,15.18
2022-10-19T09:20:38.822Z,14.82
2022-10-19T09:22:42.813Z,15.05
2022-10-19T09:24:51.972Z,13.98
2022-10-19T09:26:57.607Z,16.75
2022-10-19T09:29:14.486Z,14.52
2022-10-19T09:31:29.089Z,18.30
2022-10-19T09:33:40.003Z,16.13
2022-10-19T09:35:45.884Z,18.42
2022-10-19T09:37:50.087Z,17.83
2022-10-19T09:39:55.370Z,19.65
2022-10-19T09:42:05.012Z,21.73
2022-10-19T09:44:07.261Z,21.60
2022-10-19T09:46:29.322Z,18.38
2022-10-19T09:48:39.681Z,17.17
2022-10-19T09:50:44.972Z,19.65
2022-10-19T09:52:49.830Z,24.90
2022-10-19T09:55:07.455Z,19.02
2022-10-19T09:57:21.388Z,19.83
2022-10-19T09:59:28.466Z,19.17
2022-10-19T10:01:41.666Z,19.67
2022-10-19T10:03:53.807Z,18.52
2022-10-19T10:06:02.475Z,22.55
2022-10-19T10:08:15.170Z,16.67
2022-10-19T10:10:49.482Z,18.65
2022-10-19T10:12:53.380Z,20.17
2022-10-19T10:14:56.676Z,18.67
2022-10-19T10:17:04.495Z,20.55
2022-10-19T10:19:11.916Z,22.77
2022-10-19T10:21:25.525Z,18.63
2022-10-19T10:23:36.837Z,14.85
2022-10-19T10:25:48.961Z,14.65
2022-10-19T10:27:56.879Z,11.90
2022-10-19T10:29:59.742Z,14.45
2022-10-19T10:32:05.264Z,14.80
2022-10-19T10:34:28.704Z,15.57
2022-10-19T10:36:40.224Z,14.23
2022-10-19T10:38:50.283Z,14.48
2022-10-19T10:40:56.825Z,18.23
2022-10-19T10:43:17.145Z,15.40
2022-10-19T10:46:01.154Z,12.52
2022-10-19T10:48:15.729Z,12.13
2022-10-19T10:50:30.680Z,12.27
2022-10-19T10:52:35.024Z,14.23
2022-10-19T10:54:38.123Z,15.45
2022-10-19T10:56:43.606Z,13.60
2022-10-19T10:58:54.573Z,16.35
2022-10-19T11:01:06.593Z,17.42
2022-10-19T11:03:17.661Z,19.92
2022-10-19T11:05:31.739Z,18.98
2022-10-19T11:07:36.355Z,20.45
2022-10-19T11:09:49.583Z,18.23
2022-10-19T11:11:56.275Z,17.67
2022-10-19T11:14:17.473Z,19.45
2022-10-19T11:16:25.141Z,20.95
2022-10-19T11:18:35.197Z,17.05
2022-10-19T11:20:43.611Z,19.67
2022-10-19T11:23:08.084Z,16.80
2022-10-19T11:25:33.816Z,13.98
2022-10-19T11:27:51.273Z,13.52
2022-10-19T11:30:23.060Z,15.57
2022-10-19T11:32:57.128Z,14.10
2022-10-19T11:35:20.995Z,14.27
2022-10-19T11:37:31.691Z,15.13
2022-10-19T11:39:42.213Z,13.80
2022-10-19T11:41:55.959Z,16.13
2022-10-19T11:44:43.840Z,11.88
2022-10-19T11:47:13.950Z,14.65
2022-10-19T11:49:19.770Z,13.10
2022-10-19T11:51:53.737Z,10.88
2022-10-19T11:54:33.355Z,15.38
2022-10-19T11:57:02.246Z,14.30
2022-10-19T11:59:31.941Z,12.60
2022-10-19T12:02:10.907Z,13.50
2022-10-19T12:04:51.338Z,14.77
2022-10-19T12:07:10.023Z,12.32
2022-10-19T12:09:42.565Z,14.63
2022-10-19T12:11:47.940Z,15.30
2022-10-19T12:13:58.660Z,15.90
2022-10-19T12:19:48.261Z,12.13
2022-10-19T12:22:20.064Z,13.18
2022-10-19T12:24:48.540Z,16.05
2022-10-19T12:26:53.921Z,13.45
2022-10-19T12:29:00.637Z,11.55
2022-10-19T12:31:04.672Z,13.43
2022-10-19T12:33:29.164Z,11.32
2022-10-19T12:36:02.154Z,11.68
2022-10-19T12:38:13.274Z,9.95
2022-10-19T12:40:54.460Z,14.35
2022-10-19T12:43:15.377Z,14.18
2022-10-19T12:45:52.461Z,17.90
2022-10-19T12:48:13.099Z,16.65
2022-10-19T12:50:15.402Z,20.02
2022-10-19T12:52:35.937Z,13.20
2022-10-19T12:54:40.869Z,16.20
2022-10-19T12:56:50.132Z,14.40
2022-10-19T12:58:55.024Z,15.43
2022-10-19T13:01:02.676Z,15.43
2022-10-19T13:03:14.459Z,15.32
2022-10-19T13:05:25.223Z,15.27
2022-10-19T13:07:35.170Z,15.00
2022-10-19T13:09:43.343Z,15.32
2022-10-19T13:12:21.506Z,22.88
2022-10-19T13:14:54.212Z,16.00
2022-10-19T13:17:04.032Z,16.83
2022-10-19T13:19:12.274Z,21.38
2022-10-19T13:21:59.767Z,17.25
2022-10-19T13:24:26.044Z,23.05
2022-10-19T13:26:34.069Z,17.52
2022-10-19T13:28:37.610Z,16.80
2022-10-19T13:30:39.802Z,14.43
2022-10-19T13:32:45.640Z,16.50
2022-10-19T13:34:48.246Z,16.17
2022-10-19T13:39:07.845Z,13.68
2022-10-19T13:41:25.781Z,13.77
2022-10-19T13:43:39.664Z,16.73
2022-10-19T13:45:44.669Z,17.20
2022-10-19T13:47:55.390Z,15.95
2022-10-19T13:50:23.795Z,11.88
2022-10-19T13:52:47.414Z,12.15
2022-10-19T13:55:07.680Z,13.13
2022-10-19T13:57:47.804Z,14.43
2022-10-19T14:00:11.143Z,11.05
2022-10-19T14:02:37.650Z,13.30
2022-10-19T14:05:03.207Z,15.15
2022-10-19T14:07:20.438Z,15.23
2022-10-19T14:09:43.660Z,13.60
2022-10-19T14:11:48.727Z,12.15
2022-10-19T14:14:09.023Z,16.08
2022-10-19T14:16:29.270Z,15.93
2022-10-19T14:18:34.777Z,13.98
2022-10-19T14:20:38.853Z,12.20
2022-10-19T14:22:40.927Z,13.95
2022-10-19T14:24:43.225Z,14.52
2022-10-19T14:28:54.096Z,18.15
2022-10-19T14:30:56.123Z,16.67
2022-10-19T14:33:02.243Z,17.38
2022-10-19T14:35:18.064Z,15.38
2022-10-19T14:37:23.625Z,20.52
2022-10-19T14:39:35.359Z,16.85
2022-10-19T14:41:37.729Z,19.15
2022-10-19T14:45:42.196Z,17.63
2022-10-19T14:47:56.099Z,17.23
2022-10-19T14:49:58.232Z,16.00
2022-10-19T14:52:04.115Z,16.05
2022-10-19T14:54:29.329Z,14.77
2022-10-19T14:56:43.740Z,13.88
2022-10-19T14:58:51.937Z,13.93
2022-10-19T15:00:55.221Z,17.67
2022-10-19T15:02:59.190Z,17.85
2022-10-19T15:05:03.084Z,13.35
2022-10-19T15:07:20.686Z,17.05
2022-10-19T15:09:47.999Z,13.70
2022-10-19T15:11:51.233Z,19.15
2022-10-19T15:14:22.523Z,18.83
2022-10-19T15:16:43.290Z,16.05
2022-10-19T15:18:49.664Z,14.27
2022-10-19T15:21:21.782Z,17.58
2022-10-19T15:23:32.835Z,20.05
2022-10-19T15:25:39.441Z,16.77
2022-10-19T15:27:47.228Z,16.50
2022-10-19T15:30:05.787Z,17.13
2022-10-19T15:32:25.760Z,17.80
2022-10-19T15:34:30.017Z,15.93
2022-10-19T15:36:33.063Z,18.70
2022-10-19T15:38:35.835Z,15.55
2022-10-19T15:40:43.071Z,17.13
2022-10-19T15:42:49.060Z,17.23
2022-10-19T15:44:52.028Z,13.98
2022-10-19T15:47:32.013Z,12.35
2022-10-19T15:49:44.382Z,12.27
2022-10-19T15:54:11.728Z,12.73
2022-10-19T15:56:17.276Z,13.07
2022-10-19T15:58:21.445Z,12.93
2022-10-19T16:00:23.796Z,16.98
2022-10-19T16:02:26.459Z,15.27
2022-10-19T16:04:29.098Z,14.77
2022-10-19T16:06:34.453Z,15.57
2022-10-19T16:08:36.822Z,15.50
2022-10-19T16:12:46.886Z,17.83
2022-10-19T16:14:49.133Z,17.00
2022-10-19T16:16:52.414Z,17.60
2022-10-19T16:18:55.705Z,19.85
2022-10-19T16:20:58.427Z,19.20
2022-10-19T16:23:00.553Z,14.82
2022-10-19T16:25:03.529Z,18.77
2022-10-19T16:27:06.563Z,15.93
2022-10-19T16:29:13.167Z,17.98
2022-10-19T16:31:15.906Z,20.02
2022-10-19T16:33:20.712Z,16.92
2022-10-19T16:35:24.085Z,17.13
2022-10-19T16:37:26.229Z,17.42
2022-10-19T16:39:35.484Z,15.27
2022-10-19T16:43:40.726Z,17.35
2022-10-19T16:45:43.658Z,18.27
2022-10-19T16:47:50.178Z,14.27
2022-10-19T16:50:00.548Z,13.13
2022-10-19T16:52:06.879Z,14.75
2022-10-19T16:54:23.045Z,14.15
2022-10-19T16:56:27.608Z,13.32
2022-10-19T16:58:29.691Z,8.50
2022-10-19T17:00:32.323Z,11.88
2022-10-19T17:02:35.207Z,10.98
2022-10-19T17:04:37.460Z,11.32
2022-10-19T17:06:40.767Z,10.82
2022-10-19T17:11:23.170Z,11.27
2022-10-19T17:13:26.690Z,9.85
2022-10-19T17:15:42.384Z,11.75
2022-10-19T17:17:45.077Z,15.40
2022-10-19T17:21:50.743Z,12.57
2022-10-19T17:24:00.740Z,11.20
2022-10-19T17:26:14.622Z,12.27
2022-10-19T17:28:22.956Z,11.00
2022-10-19T17:30:29.151Z,9.90
2022-10-19T17:32:31.360Z,11.20
2022-10-19T17:34:33.420Z,12.40
2022-10-19T17:36:41.616Z,11.65
2022-10-19T17:38:45.116Z,13.45
2022-10-19T17:40:52.493Z,13.35
2022-10-19T17:43:03.497Z,14.57
2022-10-19T17:45:06.593Z,13.27
2022-10-19T17:47:08.714Z,10.88
2022-10-19T17:49:11.179Z,9.60
2022-10-19T17:53:21.482Z,11.18
2022-10-19T17:55:23.732Z,12.43
2022-10-19T17:57:29.135Z,12.65
2022-10-19T17:59:46.715Z,10.20
2022-10-19T18:01:53.958Z,12.50
2022-10-19T18:03:56.503Z,11.98
2022-10-19T18:08:02.088Z,11.73
2022-10-19T18:10:04.650Z,18.48
2022-10-19T18:14:12.868Z,12.45
2022-10-19T18:16:16.856Z,9.77
2022-10-19T18:18:23.382Z,10.40
2022-10-19T18:20:26.205Z,10.48
2022-10-19T18:22:28.288Z,11.32
2022-10-19T18:24:33.020Z,16.38
2022-10-19T18:26:35.958Z,11.68
2022-10-19T18:28:43.289Z,11.30
2022-10-19T18:30:45.813Z,13.25
2022-10-19T18:32:49.952Z,13.30
2022-10-19T18:34:52.168Z,10.88
2022-10-19T18:36:57.568Z,13.07
2022-10-19T18:39:04.767Z,13.40
2022-10-19T18:43:17.097Z,18.13
2022-10-19T18:45:21.732Z,15.65
2022-10-19T18:47:26.912Z,13.32
2022-10-19T18:49:38.924Z,16.77
2022-10-19T18:51:41.196Z,15.05
2022-10-19T18:53:44.598Z,16.05
2022-10-19T18:55:57.310Z,17.15
2022-10-19T18:58:02.296Z,13.18
2022-10-19T19:00:05.211Z,13.38
2022-10-19T19:02:22.123Z,20.77
2022-10-19T19:04:25.323Z,11.85
2022-10-19T19:06:29.887Z,14.23
2022-10-19T19:08:32.277Z,17.50
2022-10-19T19:10:34.613Z,12.45
2022-10-19T19:14:39.101Z,13.23
2022-10-19T19:16:42.970Z,14.45
2022-10-19T19:18:45.289Z,13.55
2022-10-19T19:22:49.755Z,14.00
2022-10-19T19:24:54.382Z,20.38
2022-10-19T19:26:59.963Z,13.73
2022-10-19T19:29:02.714Z,13.00
2022-10-19T19:31:06.382Z,13.68
2022-10-19T19:33:09.078Z,14.38
2022-10-19T19:35:11.552Z,11.82
2022-10-19T19:37:16.592Z,12.85
2022-10-19T19:39:21.171Z,13.00
2022-10-19T19:41:23.376Z,13.57
2022-10-19T19:43:25.769Z,15.98
2022-10-19T19:45:27.784Z,13.90
2022-10-19T19:47:30.232Z,13.60
2022-10-19T19:49:32.680Z,15.73
2022-10-19T19:51:35.361Z,15.57
2022-10-19T19:53:38.344Z,14.55
2022-10-19T19:55:40.492Z,17.35
2022-10-19T19:57:42.587Z,15.05
2022-10-19T19:59:44.645Z,13.43
2022-10-19T20:01:46.979Z,16.02
2022-10-19T20:05:51.221Z,16.80
2022-10-19T20:07:56.585Z,21.00
2022-10-19T20:09:58.771Z,18.67
2022-10-19T20:12:00.920Z,15.90
2022-10-19T20:14:03.041Z,14.52
2022-10-19T20:16:13.957Z,14.35
2022-10-19T20:18:16.062Z,12.20
2022-10-19T20:20:18.325Z,18.40
2022-10-19T20:24:25.943Z,14.68
2022-10-19T20:26:28.907Z,14.18
2022-10-19T20:28:33.969Z,14.45
2022-10-19T20:30:36.011Z,15.57
2022-10-19T20:32:38.853Z,14.75
2022-10-19T20:34:41.093Z,15.05
2022-10-19T20:36:43.468Z,15.40
2022-10-19T20:38:48.371Z,13.40
2022-10-19T20:40:50.599Z,16.35
2022-10-19T20:42:53.432Z,13.27
2022-10-19T20:44:56.433Z,14.20
2022-10-19T20:46:58.758Z,15.63
2022-10-19T20:49:01.759Z,14.45
2022-10-19T20:51:16.452Z,12.95
2022-10-19T20:53:18.961Z,11.93
2022-10-19T20:55:23.055Z,10.95
2022-10-19T20:57:28.442Z,12.05
2022-10-19T21:01:38.040Z,12.75
2022-10-19T21:03:45.188Z,15.38
2022-10-19T21:05:47.740Z,12.23
2022-10-19T21:07:53.304Z,9.45
2022-10-19T21:09:55.815Z,11.63
2022-10-19T21:12:03.407Z,10.30
2022-10-19T21:14:28.773Z,11.63
2022-10-19T21:16:33.809Z,10.95
2022-10-19T21:18:36.061Z,11.80
2022-10-19T21:22:41.618Z,10.90
2022-10-19T21:24:43.880Z,9.35
2022-10-19T21:26:46.631Z,9.65
2022-10-19T21:28:50.881Z,9.18
2022-10-19T21:30:52.871Z,9.70
2022-10-19T21:32:54.923Z,14.32
2022-10-19T21:34:56.927Z,8.57
2022-10-19T21:36:59.300Z,10.00
2022-10-19T21:39:01.801Z,10.40
2022-10-19T21:41:09.321Z,8.20
2022-10-19T21:43:11.543Z,11.05
2022-10-19T21:45:30.591Z,7.90
2022-10-19T21:47:33.439Z,6.20
2022-10-19T21:49:36.191Z,11.65
2022-10-19T21:53:40.162Z,9.05
2022-10-19T21:55:42.500Z,13.63
2022-10-19T21:57:45.989Z,8.95
2022-10-19T21:59:47.959Z,8.20
2022-10-19T22:01:50.328Z,10.48
2022-10-19T22:05:58.631Z,6.65
2022-10-19T22:08:00.753Z,9.48
2022-10-19T22:10:03.553Z,9.77
2022-10-19T22:12:05.708Z,8.13
2022-10-19T22:14:07.953Z,7.35
2022-10-19T22:16:14.189Z,6.95
2022-10-19T22:18:18.802Z,10.70
2022-10-19T22:20:20.890Z,8.60
2022-10-19T22:22:25.304Z,7.53
2022-10-19T22:24:30.064Z,11.80
2022-10-19T22:26:47.408Z,7.90
2022-10-19T22:28:49.687Z,7.78
2022-10-19T22:33:01.032Z,15.68
2022-10-19T22:35:04.425Z,8.43
2022-10-19T22:37:06.430Z,7.18
2022-10-19T22:39:08.958Z,9.00
2022-10-19T22:41:11.023Z,6.72
2022-10-19T22:43:13.249Z,10.38
2022-10-19T22:45:15.259Z,8.18
2022-10-19T22:47:17.295Z,7.10
2022-10-19T22:49:19.521Z,8.95
2022-10-19T22:53:24.551Z,8.83
2022-10-19T22:55:26.644Z,11.15
2022-10-19T22:57:28.634Z,10.50
2022-10-19T22:59:30.793Z,7.82
2022-10-19T23:01:33.189Z,8.70
2022-10-19T23:03:35.702Z,10.05
2022-10-19T23:07:40.071Z,9.33
2022-10-19T23:09:42.204Z,9.75
2022-10-19T23:11:44.436Z,10.18
2022-10-19T23:15:48.603Z,8.60
2022-10-19T23:17:50.703Z,9.30
2022-10-19T23:19:52.840Z,10.88
2022-10-19T23:21:55.087Z,10.48
2022-10-19T23:23:57.116Z,13.20
2022-10-19T23:26:01.042Z,12.18
2022-10-19T23:28:03.242Z,9.88
2022-10-19T23:30:05.693Z,10.32
2022-10-19T23:32:07.913Z,11.07
2022-10-19T23:34:09.954Z,10.00
2022-10-19T23:36:18.040Z,10.85
2022-10-19T23:38:20.062Z,11.40
2022-10-19T23:40:22.140Z,10.70
2022-10-19T23:42:27.347Z,9.10
2022-10-19T23:44:29.407Z,10.50
2022-10-19T23:46:31.482Z,12.05
2022-10-19T23:48:34.679Z,8.18
2022-10-19T23:50:36.887Z,14.25
2022-10-19T23:52:38.945Z,10.00
2022-10-19T23:54:43.234Z,8.65
2022-10-19T23:56:45.515Z,7.82
2022-10-19T23:58:48.344Z,9.52
